createdAt,value
2022-08-17T00:00:42.987Z,46.57
2022-08-17T00:03:06.090Z,46.45
2022-08-17T00:05:39.055Z,46.39
2022-08-17T00:08:07.247Z,46.57
2022-08-17T00:10:36.264Z,46.93
2022-08-17T00:13:07.405Z,46.73
2022-08-17T00:15:35.669Z,46.77
2022-08-17T00:18:04.182Z,46.71
2022-08-17T00:20:53.951Z,47.51
2022-08-17T00:23:22.407Z,46.85
2022-08-17T00:25:51.385Z,47.59
2022-08-17T00:28:22.229Z,47.30
2022-08-17T00:30:53.584Z,47.27
2022-08-17T00:33:24.057Z,47.43
2022-08-17T00:35:53.860Z,47.10
2022-08-17T00:38:22.564Z,47.47
2022-08-17T00:40:55.796Z,47.38
2022-08-17T00:43:31.788Z,47.29
2022-08-17T00:46:01.386Z,47.34
2022-08-17T00:48:30.843Z,47.58
2022-08-17T00:51:17.735Z,47.12
2022-08-17T00:53:49.548Z,47.52
2022-08-17T00:56:22.055Z,46.91
2022-08-17T00:58:50.784Z,47.09
2022-08-17T01:01:21.467Z,47.32
2022-08-17T01:03:51.984Z,47.75
2022-08-17T01:06:22.529Z,47.46
2022-08-17T01:08:52.207Z,47.46
2022-08-17T01:11:26.230Z,47.67
2022-08-17T01:13:54.707Z,48.26
2022-08-17T01:16:25.606Z,48.62
2022-08-17T01:18:56.949Z,48.14
2022-08-17T01:21:31.946Z,48.12
2022-08-17T01:24:01.522Z,48.22
2022-08-17T01:26:31.665Z,48.35
2022-08-17T01:29:00.106Z,48.33
2022-08-17T01:31:33.396Z,48.36
2022-08-17T01:34:03.447Z,49.01
2022-08-17T01:36:32.472Z,49.16
2022-08-17T01:39:02.124Z,49.05
2022-08-17T01:41:30.503Z,48.58
2022-08-17T01:49:01.500Z,49.38
2022-08-17T01:51:32.809Z,49.61
2022-08-17T01:54:05.543Z,49.91
2022-08-17T01:56:35.587Z,49.93
2022-08-17T01:59:04.133Z,48.96
2022-08-17T02:01:33.969Z,49.68
2022-08-17T02:04:03.405Z,49.55
2022-08-17T02:06:45.337Z,49.68
2022-08-17T02:09:25.713Z,49.70
2022-08-17T02:11:54.606Z,50.09
2022-08-17T02:14:23.229Z,50.11
2022-08-17T02:16:51.423Z,50.17
2022-08-17T02:19:22.003Z,49.60
2022-08-17T02:21:53.424Z,49.80
2022-08-17T02:24:58.499Z,50.09
2022-08-17T02:27:14.187Z,50.28
2022-08-17T02:29:42.379Z,50.84
2022-08-17T02:32:27.246Z,50.80
2022-08-17T02:34:57.270Z,50.31
2022-08-17T02:37:25.933Z,50.45
2022-08-17T02:39:57.135Z,50.95
2022-08-17T02:42:28.883Z,50.52
2022-08-17T02:44:57.001Z,50.49
2022-08-17T02:47:25.440Z,51.03
2022-08-17T02:49:54.477Z,51.72
2022-08-17T02:52:43.349Z,51.82
2022-08-17T02:55:17.911Z,51.76
2022-08-17T02:57:46.375Z,51.72
2022-08-17T03:00:17.824Z,51.58
2022-08-17T03:02:46.739Z,51.61
2022-08-17T03:05:17.493Z,51.93
2022-08-17T03:07:45.889Z,51.99
2022-08-17T03:10:16.607Z,52.06
2022-08-17T03:12:47.746Z,52.45
2022-08-17T03:15:18.753Z,52.65
2022-08-17T03:17:47.197Z,53.00
2022-08-17T03:20:16.167Z,52.34
2022-08-17T03:22:47.940Z,53.59
2022-08-17T03:25:25.016Z,53.32
2022-08-17T03:27:53.207Z,54.35
2022-08-17T03:30:22.597Z,54.43
2022-08-17T03:32:52.529Z,54.13
2022-08-17T03:35:23.817Z,54.52
2022-08-17T03:38:00.238Z,54.30
2022-08-17T03:40:36.954Z,53.54
2022-08-17T03:43:23.174Z,53.81
2022-08-17T03:46:27.076Z,53.62
2022-08-17T03:49:15.063Z,54.10
2022-08-17T03:52:01.067Z,53.66
2022-08-17T03:54:46.594Z,53.61
2022-08-17T03:57:16.422Z,54.27
2022-08-17T03:59:45.289Z,54.59
2022-08-17T04:02:17.507Z,54.37
2022-08-17T04:04:45.771Z,54.03
2022-08-17T04:07:14.046Z,53.85
2022-08-17T04:09:43.016Z,54.62
2022-08-17T04:12:11.267Z,55.21
2022-08-17T04:14:52.568Z,55.58
2022-08-17T04:17:23.721Z,55.73
2022-08-17T04:19:51.870Z,56.15
2022-08-17T04:22:30.482Z,56.23
2022-08-17T04:25:03.299Z,55.97
2022-08-17T04:27:31.964Z,56.61
2022-08-17T04:30:01.627Z,56.01
2022-08-17T04:33:03.605Z,56.62
2022-08-17T04:35:22.912Z,56.54
2022-08-17T04:37:52.273Z,56.90
2022-08-17T04:40:41.270Z,56.89
2022-08-17T04:43:11.454Z,57.37
2022-08-17T04:45:55.303Z,56.96
2022-08-17T04:48:29.954Z,57.52
2022-08-17T04:51:08.393Z,57.51
2022-08-17T04:53:37.122Z,57.77
2022-08-17T04:56:06.026Z,58.07
2022-08-17T04:58:34.499Z,57.96
2022-08-17T05:01:04.451Z,58.00
2022-08-17T05:03:32.799Z,57.23
2022-08-17T05:06:01.119Z,57.44
2022-08-17T05:08:29.521Z,57.57
2022-08-17T05:10:58.058Z,57.10
2022-08-17T05:13:29.937Z,56.96
2022-08-17T05:16:01.225Z,56.69
2022-08-17T05:18:31.372Z,56.78
2022-08-17T05:21:00.226Z,56.29
2022-08-17T05:23:37.830Z,56.56
2022-08-17T05:26:11.682Z,56.21
2022-08-17T05:28:54.318Z,56.26
2022-08-17T05:31:22.437Z,55.81
2022-08-17T05:33:52.483Z,54.73
2022-08-17T05:36:42.367Z,55.35
2022-08-17T05:39:15.604Z,54.48
2022-08-17T05:41:47.446Z,54.00
2022-08-17T05:44:15.658Z,54.14
2022-08-17T05:46:49.144Z,53.75
2022-08-17T05:49:20.729Z,53.38
2022-08-17T05:52:20.079Z,53.24
2022-08-17T05:55:09.245Z,51.54
2022-08-17T05:57:53.833Z,51.54
2022-08-17T06:00:30.842Z,51.55
2022-08-17T06:03:13.742Z,51.33
2022-08-17T06:05:56.267Z,51.38
2022-08-17T06:08:28.286Z,51.10
2022-08-17T06:11:04.305Z,51.25
2022-08-17T06:13:45.794Z,49.75
2022-08-17T06:16:33.611Z,48.80
2022-08-17T06:19:09.158Z,49.01
2022-08-17T06:21:43.948Z,49.21
2022-08-17T06:24:25.024Z,48.95
2022-08-17T06:26:56.338Z,49.27
2022-08-17T06:29:33.535Z,48.80
2022-08-17T06:32:02.553Z,49.28
2022-08-17T06:34:31.174Z,48.41
2022-08-17T06:37:09.245Z,47.91
2022-08-17T06:39:45.099Z,47.54
2022-08-17T06:43:00.895Z,47.27
2022-08-17T06:45:15.884Z,48.43
2022-08-17T06:47:47.587Z,49.10
2022-08-17T06:50:22.348Z,49.33
2022-08-17T06:53:00.349Z,50.03
2022-08-17T06:55:37.939Z,50.20
2022-08-17T06:58:16.260Z,50.46
2022-08-17T07:00:47.270Z,50.18
2022-08-17T07:03:21.937Z,49.98
2022-08-17T07:05:53.257Z,50.31
2022-08-17T07:08:35.272Z,50.10
2022-08-17T07:11:07.217Z,49.37
2022-08-17T07:13:49.285Z,49.22
2022-08-17T07:16:33.609Z,48.79
2022-08-17T07:19:07.420Z,48.63
2022-08-17T07:21:46.094Z,48.11
2022-08-17T07:24:33.237Z,47.71
2022-08-17T07:27:07.620Z,46.75
2022-08-17T07:29:40.273Z,46.61
2022-08-17T07:32:09.461Z,47.05
2022-08-17T07:35:10.777Z,46.81
2022-08-17T07:37:41.081Z,46.12
2022-08-17T07:40:33.549Z,44.89
2022-08-17T07:43:22.174Z,44.62
2022-08-17T07:46:12.598Z,45.42
2022-08-17T07:48:44.431Z,45.04
2022-08-17T07:51:18.625Z,45.33
2022-08-17T07:53:48.204Z,45.21
2022-08-17T07:56:37.917Z,44.62
2022-08-17T07:59:12.538Z,44.35
2022-08-17T08:02:01.261Z,44.37
2022-08-17T08:07:26.859Z,44.88
2022-08-17T08:10:04.092Z,44.63
2022-08-17T08:12:37.021Z,44.55
2022-08-17T08:15:11.482Z,44.74
2022-08-17T08:17:48.562Z,44.67
2022-08-17T08:20:50.864Z,44.74
2022-08-17T08:23:14.477Z,44.69
2022-08-17T08:25:52.211Z,44.52
2022-08-17T08:28:30.632Z,44.10
2022-08-17T08:31:06.732Z,43.75
2022-08-17T08:33:48.567Z,43.87
2022-08-17T08:36:56.848Z,43.47
2022-08-17T08:39:21.423Z,43.80
2022-08-17T08:41:58.985Z,44.09
2022-08-17T08:44:59.770Z,44.01
2022-08-17T08:47:39.790Z,44.05
2022-08-17T08:50:30.133Z,44.08
2022-08-17T08:53:16.244Z,43.54
2022-08-17T08:55:53.664Z,43.34
2022-08-17T08:58:31.616Z,43.10
2022-08-17T09:01:22.557Z,42.46
2022-08-17T09:04:26.186Z,42.01
2022-08-17T09:07:08.931Z,41.72
2022-08-17T09:09:44.274Z,41.66
2022-08-17T09:12:17.444Z,41.33
2022-08-17T09:14:59.570Z,40.82
2022-08-17T09:17:36.148Z,41.24
2022-08-17T09:20:11.379Z,40.47
2022-08-17T09:22:59.977Z,40.43
2022-08-17T09:25:31.216Z,40.64
2022-08-17T09:28:03.800Z,40.02
2022-08-17T09:30:41.189Z,39.55
2022-08-17T09:33:11.831Z,39.18
2022-08-17T09:35:44.672Z,39.18
2022-08-17T09:38:21.612Z,38.86
2022-08-17T09:40:56.882Z,38.00
2022-08-17T09:43:36.010Z,37.68
2022-08-17T09:46:09.611Z,37.35
2022-08-17T09:48:52.006Z,36.81
2022-08-17T09:51:25.050Z,37.23
2022-08-17T09:53:53.284Z,36.95
2022-08-17T09:56:36.111Z,37.06
2022-08-17T09:59:17.253Z,37.01
2022-08-17T10:01:50.647Z,36.57
2022-08-17T10:04:30.827Z,36.16
2022-08-17T10:07:06.135Z,35.53
2022-08-17T10:09:42.634Z,35.49
2022-08-17T10:12:20.596Z,35.20
2022-08-17T10:15:08.237Z,35.33
2022-08-17T10:17:46.148Z,35.12
2022-08-17T10:20:18.980Z,34.78
2022-08-17T10:23:09.110Z,34.42
2022-08-17T10:26:08.670Z,34.37
2022-08-17T10:28:41.048Z,34.03
2022-08-17T10:31:34.361Z,33.91
2022-08-17T10:34:19.350Z,33.83
2022-08-17T10:36:56.050Z,33.12
2022-08-17T10:39:32.137Z,32.88
2022-08-17T10:42:32.453Z,32.63
2022-08-17T10:45:05.404Z,32.77
2022-08-17T10:48:04.300Z,32.46
2022-08-17T10:51:00.967Z,31.95
2022-08-17T10:54:02.380Z,31.64
2022-08-17T10:56:50.515Z,31.37
2022-08-17T10:59:52.502Z,31.16
2022-08-17T11:02:31.659Z,30.57
2022-08-17T11:05:22.311Z,30.40
2022-08-17T11:08:05.461Z,30.54
2022-08-17T11:10:56.751Z,30.28
2022-08-17T11:13:36.057Z,30.33
2022-08-17T11:16:19.121Z,30.06
2022-08-17T11:19:13.530Z,30.08
2022-08-17T11:22:12.902Z,29.92
2022-08-17T11:24:48.496Z,29.67
2022-08-17T11:27:28.068Z,29.50
2022-08-17T11:30:02.165Z,28.98
2022-08-17T11:32:37.405Z,29.23
2022-08-17T11:35:22.258Z,28.84
2022-08-17T11:38:01.102Z,28.13
2022-08-17T11:40:41.228Z,27.96
2022-08-17T11:43:44.555Z,28.04
2022-08-17T11:46:21.703Z,26.92
2022-08-17T11:49:16.954Z,26.71
2022-08-17T11:52:13.024Z,26.56
2022-08-17T11:54:45.259Z,25.99
2022-08-17T11:58:01.828Z,26.18
2022-08-17T12:01:00.033Z,25.96
2022-08-17T12:03:57.987Z,25.83
2022-08-17T12:06:33.572Z,25.65
2022-08-17T12:09:08.092Z,25.21
2022-08-17T12:11:55.184Z,25.10
2022-08-17T12:15:05.798Z,25.50
2022-08-17T12:17:41.612Z,25.81
2022-08-17T12:20:15.233Z,25.73
2022-08-17T12:22:56.613Z,25.72
2022-08-17T12:25:30.483Z,25.35
2022-08-17T12:28:05.416Z,24.76
2022-08-17T12:30:38.855Z,24.98
2022-08-17T12:33:25.490Z,24.95
2022-08-17T12:35:59.724Z,25.05
2022-08-17T12:38:32.375Z,24.51
2022-08-17T12:41:23.593Z,24.13
2022-08-17T12:44:02.462Z,24.14
2022-08-17T12:46:35.908Z,23.44
2022-08-17T12:49:21.423Z,23.78
2022-08-17T12:51:50.769Z,23.57
2022-08-17T12:54:41.851Z,23.61
2022-08-17T12:57:15.790Z,23.46
2022-08-17T12:59:48.944Z,23.94
2022-08-17T13:02:29.491Z,23.72
2022-08-17T13:05:03.229Z,23.76
2022-08-17T13:07:37.135Z,23.13
2022-08-17T13:10:05.994Z,23.10
2022-08-17T13:12:36.509Z,22.81
2022-08-17T13:15:05.574Z,22.98
2022-08-17T13:17:37.185Z,23.05
2022-08-17T13:20:16.164Z,22.38
2022-08-17T13:22:45.411Z,22.31
2022-08-17T13:25:21.988Z,22.00
2022-08-17T13:27:52.215Z,22.18
2022-08-17T13:30:27.219Z,21.77
2022-08-17T13:32:58.736Z,22.06
2022-08-17T13:35:50.127Z,22.17
2022-08-17T13:38:45.697Z,22.01
2022-08-17T13:41:34.710Z,21.87
2022-08-17T13:44:05.673Z,22.20
2022-08-17T13:46:39.830Z,21.28
2022-08-17T13:49:12.920Z,22.35
2022-08-17T13:51:47.537Z,22.16
2022-08-17T13:54:28.749Z,21.88
2022-08-17T13:57:03.567Z,21.35
2022-08-17T13:59:54.172Z,21.17
2022-08-17T14:02:28.927Z,21.07
2022-08-17T14:05:02.185Z,20.81
2022-08-17T14:07:37.940Z,20.69
2022-08-17T14:10:11.419Z,21.08
2022-08-17T14:12:41.723Z,20.84
2022-08-17T14:15:13.082Z,20.60
2022-08-17T14:17:41.507Z,20.43
2022-08-17T14:20:12.273Z,20.62
2022-08-17T14:22:45.531Z,20.58
2022-08-17T14:25:15.658Z,20.29
2022-08-17T14:27:52.723Z,20.26
2022-08-17T14:30:28.857Z,20.83
2022-08-17T14:32:58.616Z,20.31
2022-08-17T14:35:28.005Z,20.48
2022-08-17T14:38:00.501Z,20.66
2022-08-17T14:40:30.150Z,20.84
2022-08-17T14:42:59.419Z,21.11
2022-08-17T14:45:32.522Z,21.02
2022-08-17T14:48:12.028Z,21.25
2022-08-17T14:50:43.083Z,21.37
2022-08-17T14:53:19.726Z,21.51
2022-08-17T14:55:51.885Z,21.47
2022-08-17T14:58:20.381Z,21.77
2022-08-17T15:00:51.323Z,21.31
2022-08-17T15:03:19.867Z,21.47
2022-08-17T15:05:48.758Z,21.50
2022-08-17T15:08:19.692Z,21.45
2022-08-17T15:10:50.019Z,21.73
2022-08-17T15:13:22.086Z,21.60
2022-08-17T15:15:51.131Z,21.70
2022-08-17T15:18:20.102Z,21.81
2022-08-17T15:20:49.275Z,22.17
2022-08-17T15:23:21.438Z,22.06
2022-08-17T15:25:50.649Z,21.92
2022-08-17T15:28:18.861Z,22.54
2022-08-17T15:30:48.417Z,22.80
2022-08-17T15:33:17.870Z,23.11
2022-08-17T15:35:46.128Z,23.22
2022-08-17T15:38:14.539Z,23.49
2022-08-17T15:40:46.067Z,23.55
2022-08-17T15:43:16.252Z,23.20
2022-08-17T15:45:44.820Z,23.02
2022-08-17T15:48:41.501Z,23.30
2022-08-17T15:51:11.521Z,23.45
2022-08-17T15:53:40.175Z,23.96
2022-08-17T15:56:09.885Z,24.00
2022-08-17T15:58:40.219Z,24.24
2022-08-17T16:01:14.939Z,23.22
2022-08-17T16:04:04.191Z,22.78
2022-08-17T16:06:35.247Z,21.91
2022-08-17T16:09:03.367Z,20.64
2022-08-17T16:11:32.937Z,20.33
2022-08-17T16:14:01.053Z,20.28
2022-08-17T16:16:31.318Z,20.19
2022-08-17T16:18:59.592Z,20.47
2022-08-17T16:21:31.124Z,20.86
2022-08-17T16:24:13.237Z,20.87
2022-08-17T16:26:45.060Z,21.09
2022-08-17T16:29:13.532Z,20.82
2022-08-17T16:31:43.357Z,20.74
2022-08-17T16:34:17.023Z,20.59
2022-08-17T16:36:54.869Z,21.04
2022-08-17T16:39:26.352Z,20.51
2022-08-17T16:41:56.517Z,21.37
2022-08-17T16:44:25.910Z,22.02
2022-08-17T16:46:54.358Z,22.32
2022-08-17T16:49:35.795Z,22.91
2022-08-17T16:52:10.323Z,23.00
2022-08-17T16:54:40.697Z,23.58
2022-08-17T16:57:10.524Z,23.87
2022-08-17T16:59:42.608Z,24.57
2022-08-17T17:02:16.375Z,24.84
2022-08-17T17:04:50.565Z,24.61
2022-08-17T17:07:33.915Z,25.02
2022-08-17T17:10:05.985Z,25.76
2022-08-17T17:13:02.871Z,25.99
2022-08-17T17:15:29.837Z,26.46
2022-08-17T17:18:06.780Z,26.74
2022-08-17T17:20:41.513Z,26.72
2022-08-17T17:23:14.771Z,27.07
2022-08-17T17:25:49.842Z,27.11
2022-08-17T17:28:24.983Z,27.22
2022-08-17T17:31:02.070Z,27.54
2022-08-17T17:33:36.210Z,27.93
2022-08-17T17:36:09.195Z,28.14
2022-08-17T17:38:43.108Z,28.44
2022-08-17T17:41:17.028Z,28.67
2022-08-17T17:43:49.389Z,28.87
2022-08-17T17:46:28.580Z,29.08
2022-08-17T17:48:57.302Z,29.24
2022-08-17T17:52:06.835Z,29.36
2022-08-17T17:54:28.464Z,29.76
2022-08-17T17:57:03.491Z,29.67
2022-08-17T17:59:43.899Z,29.57
2022-08-17T18:02:41.025Z,30.14
2022-08-17T18:05:17.359Z,30.21
2022-08-17T18:07:50.442Z,30.26
2022-08-17T18:10:30.214Z,30.22
2022-08-17T18:13:16.972Z,30.14
2022-08-17T18:15:51.186Z,29.97
2022-08-17T18:18:38.025Z,29.83
2022-08-17T18:21:15.605Z,30.34
2022-08-17T18:23:54.646Z,30.26
2022-08-17T18:26:46.879Z,30.31
2022-08-17T18:29:31.575Z,31.35
2022-08-17T18:32:18.316Z,31.41
2022-08-17T18:34:48.849Z,31.49
2022-08-17T18:37:32.407Z,31.79
2022-08-17T18:40:00.658Z,32.27
2022-08-17T18:42:30.253Z,32.45
2022-08-17T18:44:58.465Z,32.82
2022-08-17T18:47:29.631Z,32.98
2022-08-17T18:50:00.570Z,32.60
2022-08-17T18:52:31.875Z,32.36
2022-08-17T18:55:04.035Z,32.27
2022-08-17T18:57:35.447Z,32.83
2022-08-17T19:00:12.592Z,32.82
2022-08-17T19:02:54.463Z,32.83
2022-08-17T19:05:35.589Z,32.82
2022-08-17T19:08:20.384Z,33.95
2022-08-17T19:10:50.264Z,33.23
2022-08-17T19:13:23.852Z,32.71
2022-08-17T19:16:11.716Z,32.72
2022-08-17T19:18:48.588Z,33.17
2022-08-17T19:21:19.838Z,32.99
2022-08-17T19:23:54.249Z,33.24
2022-08-17T19:26:50.598Z,32.98
2022-08-17T19:29:16.877Z,34.02
2022-08-17T19:31:50.490Z,34.14
2022-08-17T19:34:33.332Z,33.79
2022-08-17T19:37:09.207Z,34.50
2022-08-17T19:39:42.407Z,34.73
2022-08-17T19:42:15.620Z,33.76
2022-08-17T19:44:52.948Z,33.71
2022-08-17T19:47:53.371Z,34.19
2022-08-17T19:50:38.516Z,33.19
2022-08-17T19:53:21.546Z,33.26
2022-08-17T19:55:55.305Z,33.26
2022-08-17T19:58:34.569Z,33.28
2022-08-17T20:01:03.177Z,33.63
2022-08-17T20:03:36.909Z,33.93
2022-08-17T20:06:13.005Z,33.60
2022-08-17T20:08:50.199Z,33.92
2022-08-17T20:11:22.898Z,34.23
2022-08-17T20:13:56.767Z,34.43
2022-08-17T20:16:24.972Z,34.87
2022-08-17T20:18:59.688Z,35.46
2022-08-17T20:21:37.324Z,35.21
2022-08-17T20:24:19.009Z,35.09
2022-08-17T20:26:58.746Z,36.18
2022-08-17T20:29:39.593Z,36.11
2022-08-17T20:32:30.563Z,36.04
2022-08-17T20:35:18.201Z,36.40
2022-08-17T20:37:55.417Z,36.69
2022-08-17T20:40:36.351Z,36.32
2022-08-17T20:43:58.945Z,36.47
2022-08-17T20:46:35.723Z,36.96
2022-08-17T20:49:17.149Z,36.73
2022-08-17T20:52:01.707Z,37.18
2022-08-17T20:54:46.630Z,36.90
2022-08-17T20:57:48.964Z,37.11
2022-08-17T21:00:42.691Z,37.26
2022-08-17T21:03:50.199Z,37.26
2022-08-17T21:06:22.657Z,37.22
2022-08-17T21:08:58.534Z,37.49
2022-08-17T21:12:04.392Z,37.52
2022-08-17T21:14:39.835Z,36.49
2022-08-17T21:17:34.320Z,35.59
2022-08-17T21:20:11.929Z,35.79
2022-08-17T21:22:52.555Z,36.74
2022-08-17T21:25:32.673Z,37.16
2022-08-17T21:28:08.617Z,38.01
2022-08-17T21:30:55.936Z,38.11
2022-08-17T21:33:29.348Z,38.71
2022-08-17T21:36:25.689Z,39.34
2022-08-17T21:39:02.097Z,39.30
2022-08-17T21:41:34.625Z,39.36
2022-08-17T21:44:07.949Z,39.40
2022-08-17T21:46:42.916Z,39.60
2022-08-17T21:49:17.842Z,39.86
2022-08-17T21:51:50.438Z,39.41
2022-08-17T21:54:28.833Z,39.55
2022-08-17T21:56:59.541Z,39.98
2022-08-17T21:59:32.173Z,39.82
2022-08-17T22:02:02.682Z,40.25
2022-08-17T22:04:32.422Z,40.21
2022-08-17T22:07:02.533Z,40.29
2022-08-17T22:09:32.830Z,40.75
2022-08-17T22:12:04.929Z,41.20
2022-08-17T22:14:52.667Z,41.05
2022-08-17T22:17:24.625Z,41.31
2022-08-17T22:19:54.371Z,41.11
2022-08-17T22:22:28.167Z,40.98
2022-08-17T22:24:57.992Z,40.51
2022-08-17T22:27:50.871Z,41.43
2022-08-17T22:30:36.579Z,41.47
2022-08-17T22:33:40.366Z,41.66
2022-08-17T22:36:14.811Z,41.50
2022-08-17T22:38:43.858Z,42.04
2022-08-17T22:41:23.806Z,41.78
2022-08-17T22:43:53.083Z,41.43
2022-08-17T22:46:23.925Z,42.15
2022-08-17T22:48:54.398Z,42.48
2022-08-17T22:51:25.280Z,42.14
2022-08-17T22:54:13.154Z,42.01
2022-08-17T22:57:06.298Z,42.13
2022-08-17T22:59:42.400Z,42.36
2022-08-17T23:02:15.213Z,42.55
2022-08-17T23:04:47.784Z,42.78
2022-08-17T23:07:17.480Z,43.05
2022-08-17T23:09:45.947Z,43.28
2022-08-17T23:12:18.022Z,43.38
2022-08-17T23:14:48.118Z,43.37
2022-08-17T23:17:18.162Z,43.53
2022-08-17T23:19:46.277Z,43.58
2022-08-17T23:22:14.388Z,43.51
2022-08-17T23:24:49.018Z,43.74
2022-08-17T23:27:17.594Z,43.84
2022-08-17T23:29:47.167Z,44.11
2022-08-17T23:32:17.619Z,43.52
2022-08-17T23:34:48.264Z,43.86
2022-08-17T23:37:16.895Z,43.70
2022-08-17T23:39:45.792Z,43.61
2022-08-17T23:42:24.397Z,43.33
2022-08-17T23:44:52.517Z,43.23
2022-08-17T23:47:22.223Z,42.77
2022-08-17T23:49:50.357Z,42.78
2022-08-17T23:52:23.351Z,43.07
2022-08-17T23:54:51.680Z,43.40
2022-08-17T23:57:33.450Z,42.84
